sensor_id;sensor_type;location;lat;lon;timestamp;P1;durP1;ratioP1;P2;durP2;ratioP2
70683;SDS011;58263;48.146;11.440;2022-10-13T00:01:47;11.73;;;7.53;;
70683;SDS011;58263;48.146;11.440;2022-10-13T00:04:13;14.25;;;7.85;;
70683;SDS011;58263;48.146;11.440;2022-10-13T00:06:38;11.60;;;7.10;;
70683;SDS011;58263;48.146;11.440;2022-10-13T00:09:03;10.50;;;7.57;;
70683;SDS011;58263;48.146;11.440;2022-10-13T00:11:29;13.80;;;8.30;;
70683;SDS011;58263;48.146;11.440;2022-10-13T00:13:56;16.40;;;7.15;;
70683;SDS011;58263;48.146;11.440;2022-10-13T00:18:49;12.38;;;7.85;;
70683;SDS011;58263;48.146;11.440;2022-10-13T00:21:17;12.38;;;6.20;;
70683;SDS011;58263;48.146;11.440;2022-10-13T00:23:44;12.75;;;6.57;;
70683;SDS011;58263;48.146;11.440;2022-10-13T00:26:11;9.82;;;6.43;;
70683;SDS011;58263;48.146;11.440;2022-10-13T00:28:38;12.52;;;6.65;;
70683;SDS011;58263;48.146;11.440;2022-10-13T00:31:03;14.48;;;6.28;;
70683;SDS011;58263;48.146;11.440;2022-10-13T00:33:39;11.85;;;6.32;;
70683;SDS011;58263;48.146;11.440;2022-10-13T00:36:04;15.83;;;6.30;;
70683;SDS011;58263;48.146;11.440;2022-10-13T00:38:30;12.98;;;6.38;;
70683;SDS011;58263;48.146;11.440;2022-10-13T00:40:55;15.83;;;6.53;;
70683;SDS011;58263;48.146;11.440;2022-10-13T00:46:28;12.55;;;7.05;;
70683;SDS011;58263;48.146;11.440;2022-10-13T00:49:08;12.18;;;6.32;;
70683;SDS011;58263;48.146;11.440;2022-10-13T00:51:39;11.35;;;6.13;;
70683;SDS011;58263;48.146;11.440;2022-10-13T00:54:09;13.77;;;6.35;;
70683;SDS011;58263;48.146;11.440;2022-10-13T00:56:38;12.13;;;5.55;;
70683;SDS011;58263;48.146;11.440;2022-10-13T00:59:04;14.63;;;6.43;;
70683;SDS011;58263;48.146;11.440;2022-10-13T01:01:35;9.52;;;6.03;;
70683;SDS011;58263;48.146;11.440;2022-10-13T01:04:01;11.52;;;6.22;;
70683;SDS011;58263;48.146;11.440;2022-10-13T01:06:27;18.80;;;6.83;;
70683;SDS011;58263;48.146;11.440;2022-10-13T01:08:52;11.00;;;6.30;;
70683;SDS011;58263;48.146;11.440;2022-10-13T01:11:28;15.18;;;7.05;;
70683;SDS011;58263;48.146;11.440;2022-10-13T01:19:37;13.98;;;6.88;;
70683;SDS011;58263;48.146;11.440;2022-10-13T01:22:32;10.57;;;6.20;;
70683;SDS011;58263;48.146;11.440;2022-10-13T01:25:31;13.27;;;6.30;;
70683;SDS011;58263;48.146;11.440;2022-10-13T01:30:59;12.90;;;6.85;;
70683;SDS011;58263;48.146;11.440;2022-10-13T01:36:54;11.82;;;6.35;;
70683;SDS011;58263;48.146;11.440;2022-10-13T01:40:15;14.55;;;6.05;;
70683;SDS011;58263;48.146;11.440;2022-10-13T01:45:36;15.80;;;5.82;;
70683;SDS011;58263;48.146;11.440;2022-10-13T01:48:06;10.52;;;5.78;;
70683;SDS011;58263;48.146;11.440;2022-10-13T01:50:34;13.07;;;5.82;;
70683;SDS011;58263;48.146;11.440;2022-10-13T01:53:01;10.32;;;5.68;;
70683;SDS011;58263;48.146;11.440;2022-10-13T01:55:28;11.23;;;6.15;;
70683;SDS011;58263;48.146;11.440;2022-10-13T01:57:54;9.30;;;5.97;;
70683;SDS011;58263;48.146;11.440;2022-10-13T02:00:20;9.93;;;6.75;;
70683;SDS011;58263;48.146;11.440;2022-10-13T02:05:40;13.32;;;6.30;;
70683;SDS011;58263;48.146;11.440;2022-10-13T02:13:44;12.13;;;5.50;;
70683;SDS011;58263;48.146;11.440;2022-10-13T02:16:24;14.80;;;6.40;;
70683;SDS011;58263;48.146;11.440;2022-10-13T02:18:52;11.52;;;6.32;;
70683;SDS011;58263;48.146;11.440;2022-10-13T02:21:21;8.38;;;5.32;;
70683;SDS011;58263;48.146;11.440;2022-10-13T02:23:46;11.88;;;6.20;;
70683;SDS011;58263;48.146;11.440;2022-10-13T02:26:12;12.75;;;7.03;;
70683;SDS011;58263;48.146;11.440;2022-10-13T02:28:38;10.88;;;6.47;;
70683;SDS011;58263;48.146;11.440;2022-10-13T02:31:04;10.98;;;6.05;;
70683;SDS011;58263;48.146;11.440;2022-10-13T02:33:31;11.93;;;6.78;;
70683;SDS011;58263;48.146;11.440;2022-10-13T02:35:57;11.10;;;6.25;;
70683;SDS011;58263;48.146;11.440;2022-10-13T02:38:22;11.50;;;6.50;;
70683;SDS011;58263;48.146;11.440;2022-10-13T02:40:47;10.90;;;6.17;;
70683;SDS011;58263;48.146;11.440;2022-10-13T02:43:13;11.23;;;6.80;;
70683;SDS011;58263;48.146;11.440;2022-10-13T02:45:38;12.87;;;6.27;;
70683;SDS011;58263;48.146;11.440;2022-10-13T02:48:03;11.33;;;7.60;;
70683;SDS011;58263;48.146;11.440;2022-10-13T02:50:29;13.43;;;6.20;;
70683;SDS011;58263;48.146;11.440;2022-10-13T02:52:54;12.50;;;5.90;;
70683;SDS011;58263;48.146;11.440;2022-10-13T02:55:19;13.13;;;6.60;;
70683;SDS011;58263;48.146;11.440;2022-10-13T02:57:45;21.80;;;6.55;;
70683;SDS011;58263;48.146;11.440;2022-10-13T03:00:10;18.50;;;6.40;;
70683;SDS011;58263;48.146;11.440;2022-10-13T03:02:36;11.05;;;6.68;;
70683;SDS011;58263;48.146;11.440;2022-10-13T03:05:01;10.43;;;6.60;;
70683;SDS011;58263;48.146;11.440;2022-10-13T03:07:27;11.82;;;6.47;;
70683;SDS011;58263;48.146;11.440;2022-10-13T03:09:52;12.67;;;5.83;;
70683;SDS011;58263;48.146;11.440;2022-10-13T03:12:18;8.97;;;5.17;;
70683;SDS011;58263;48.146;11.440;2022-10-13T03:14:43;9.95;;;5.88;;
70683;SDS011;58263;48.146;11.440;2022-10-13T03:17:08;13.37;;;6.13;;
70683;SDS011;58263;48.146;11.440;2022-10-13T03:19:34;12.88;;;6.32;;
70683;SDS011;58263;48.146;11.440;2022-10-13T03:21:59;10.67;;;6.33;;
70683;SDS011;58263;48.146;11.440;2022-10-13T03:24:24;13.17;;;6.73;;
70683;SDS011;58263;48.146;11.440;2022-10-13T03:26:50;12.20;;;7.97;;
70683;SDS011;58263;48.146;11.440;2022-10-13T03:29:15;24.30;;;8.90;;
70683;SDS011;58263;48.146;11.440;2022-10-13T03:31:42;12.00;;;7.72;;
70683;SDS011;58263;48.146;11.440;2022-10-13T03:34:08;12.70;;;6.80;;
70683;SDS011;58263;48.146;11.440;2022-10-13T03:36:34;14.88;;;7.80;;
70683;SDS011;58263;48.146;11.440;2022-10-13T03:39:00;10.82;;;6.18;;
70683;SDS011;58263;48.146;11.440;2022-10-13T03:41:25;14.47;;;7.10;;
70683;SDS011;58263;48.146;11.440;2022-10-13T03:43:50;20.47;;;5.93;;
70683;SDS011;58263;48.146;11.440;2022-10-13T03:46:16;16.77;;;7.20;;
70683;SDS011;58263;48.146;11.440;2022-10-13T03:48:42;13.85;;;6.68;;
70683;SDS011;58263;48.146;11.440;2022-10-13T03:51:08;14.88;;;6.68;;
70683;SDS011;58263;48.146;11.440;2022-10-13T03:53:36;34.42;;;7.95;;
70683;SDS011;58263;48.146;11.440;2022-10-13T03:56:02;37.05;;;17.63;;
70683;SDS011;58263;48.146;11.440;2022-10-13T03:58:28;18.55;;;8.70;;
70683;SDS011;58263;48.146;11.440;2022-10-13T04:00:54;20.33;;;7.17;;
70683;SDS011;58263;48.146;11.440;2022-10-13T04:03:20;30.10;;;7.47;;
70683;SDS011;58263;48.146;11.440;2022-10-13T04:05:45;16.90;;;7.07;;
70683;SDS011;58263;48.146;11.440;2022-10-13T04:08:11;10.65;;;6.05;;
70683;SDS011;58263;48.146;11.440;2022-10-13T04:10:36;14.65;;;6.57;;
70683;SDS011;58263;48.146;11.440;2022-10-13T04:13:02;10.63;;;6.22;;
70683;SDS011;58263;48.146;11.440;2022-10-13T04:15:27;10.43;;;6.70;;
70683;SDS011;58263;48.146;11.440;2022-10-13T04:17:53;9.77;;;6.00;;
70683;SDS011;58263;48.146;11.440;2022-10-13T04:20:18;9.10;;;5.93;;
70683;SDS011;58263;48.146;11.440;2022-10-13T04:22:43;11.00;;;6.13;;
70683;SDS011;58263;48.146;11.440;2022-10-13T04:25:09;11.38;;;6.35;;
70683;SDS011;58263;48.146;11.440;2022-10-13T04:27:34;13.13;;;6.95;;
70683;SDS011;58263;48.146;11.440;2022-10-13T04:30:04;13.32;;;6.72;;
70683;SDS011;58263;48.146;11.440;2022-10-13T04:32:30;11.68;;;6.82;;
70683;SDS011;58263;48.146;11.440;2022-10-13T04:34:56;11.05;;;6.90;;
70683;SDS011;58263;48.146;11.440;2022-10-13T04:37:22;16.43;;;8.10;;
70683;SDS011;58263;48.146;11.440;2022-10-13T04:39:47;11.93;;;6.75;;
70683;SDS011;58263;48.146;11.440;2022-10-13T04:42:13;11.33;;;6.93;;
70683;SDS011;58263;48.146;11.440;2022-10-13T04:44:38;13.90;;;7.20;;
70683;SDS011;58263;48.146;11.440;2022-10-13T04:47:03;16.23;;;8.03;;
70683;SDS011;58263;48.146;11.440;2022-10-13T04:49:29;13.57;;;7.55;;
70683;SDS011;58263;48.146;11.440;2022-10-13T04:51:54;13.20;;;7.47;;
70683;SDS011;58263;48.146;11.440;2022-10-13T04:54:19;15.53;;;8.37;;
70683;SDS011;58263;48.146;11.440;2022-10-13T04:56:45;12.37;;;7.17;;
70683;SDS011;58263;48.146;11.440;2022-10-13T04:59:10;17.35;;;8.60;;
70683;SDS011;58263;48.146;11.440;2022-10-13T05:01:36;17.88;;;8.68;;
70683;SDS011;58263;48.146;11.440;2022-10-13T05:04:02;12.80;;;7.50;;
70683;SDS011;58263;48.146;11.440;2022-10-13T05:06:30;27.27;;;8.23;;
70683;SDS011;58263;48.146;11.440;2022-10-13T05:08:57;15.40;;;7.85;;
70683;SDS011;58263;48.146;11.440;2022-10-13T05:11:23;15.05;;;9.40;;
70683;SDS011;58263;48.146;11.440;2022-10-13T05:13:50;28.73;;;14.00;;
70683;SDS011;58263;48.146;11.440;2022-10-13T05:16:16;19.63;;;10.67;;
70683;SDS011;58263;48.146;11.440;2022-10-13T05:18:42;18.98;;;10.00;;
70683;SDS011;58263;48.146;11.440;2022-10-13T05:21:12;20.08;;;9.10;;
70683;SDS011;58263;48.146;11.440;2022-10-13T05:23:39;16.20;;;7.82;;
70683;SDS011;58263;48.146;11.440;2022-10-13T05:26:07;16.63;;;8.85;;
70683;SDS011;58263;48.146;11.440;2022-10-13T05:28:34;15.65;;;8.70;;
70683;SDS011;58263;48.146;11.440;2022-10-13T05:33:44;19.23;;;9.80;;
70683;SDS011;58263;48.146;11.440;2022-10-13T05:36:11;17.15;;;10.00;;
70683;SDS011;58263;48.146;11.440;2022-10-13T05:38:38;19.35;;;9.23;;
70683;SDS011;58263;48.146;11.440;2022-10-13T05:41:04;18.05;;;9.10;;
70683;SDS011;58263;48.146;11.440;2022-10-13T05:43:31;20.45;;;9.50;;
70683;SDS011;58263;48.146;11.440;2022-10-13T05:45:57;17.25;;;9.65;;
70683;SDS011;58263;48.146;11.440;2022-10-13T05:48:23;20.45;;;9.40;;
70683;SDS011;58263;48.146;11.440;2022-10-13T05:50:48;18.70;;;9.23;;
70683;SDS011;58263;48.146;11.440;2022-10-13T05:53:13;25.07;;;13.43;;
70683;SDS011;58263;48.146;11.440;2022-10-13T05:55:39;19.58;;;9.82;;
70683;SDS011;58263;48.146;11.440;2022-10-13T05:58:04;23.63;;;9.80;;
70683;SDS011;58263;48.146;11.440;2022-10-13T06:00:30;18.77;;;10.02;;
70683;SDS011;58263;48.146;11.440;2022-10-13T06:03:02;17.10;;;9.23;;
70683;SDS011;58263;48.146;11.440;2022-10-13T06:05:31;17.58;;;9.27;;
70683;SDS011;58263;48.146;11.440;2022-10-13T06:07:57;15.63;;;8.88;;
70683;SDS011;58263;48.146;11.440;2022-10-13T06:10:23;22.55;;;10.35;;
70683;SDS011;58263;48.146;11.440;2022-10-13T06:12:50;17.13;;;9.90;;
70683;SDS011;58263;48.146;11.440;2022-10-13T06:15:15;18.17;;;9.93;;
70683;SDS011;58263;48.146;11.440;2022-10-13T06:17:40;16.15;;;9.40;;
70683;SDS011;58263;48.146;11.440;2022-10-13T06:20:06;18.80;;;11.15;;
70683;SDS011;58263;48.146;11.440;2022-10-13T06:22:32;20.88;;;11.95;;
70683;SDS011;58263;48.146;11.440;2022-10-13T06:24:59;19.75;;;10.32;;
70683;SDS011;58263;48.146;11.440;2022-10-13T06:27:24;16.77;;;9.27;;
70683;SDS011;58263;48.146;11.440;2022-10-13T06:29:50;17.73;;;9.70;;
70683;SDS011;58263;48.146;11.440;2022-10-13T06:32:15;21.23;;;9.13;;
70683;SDS011;58263;48.146;11.440;2022-10-13T06:34:40;20.93;;;10.37;;
70683;SDS011;58263;48.146;11.440;2022-10-13T06:37:06;17.30;;;10.17;;
70683;SDS011;58263;48.146;11.440;2022-10-13T06:39:31;19.08;;;9.50;;
70683;SDS011;58263;48.146;11.440;2022-10-13T06:41:56;21.55;;;10.20;;
70683;SDS011;58263;48.146;11.440;2022-10-13T06:44:22;17.57;;;10.00;;
70683;SDS011;58263;48.146;11.440;2022-10-13T06:46:47;19.48;;;9.90;;
70683;SDS011;58263;48.146;11.440;2022-10-13T06:49:12;23.63;;;11.68;;
70683;SDS011;58263;48.146;11.440;2022-10-13T06:51:38;21.98;;;10.68;;
70683;SDS011;58263;48.146;11.440;2022-10-13T06:54:03;20.10;;;11.60;;
70683;SDS011;58263;48.146;11.440;2022-10-13T06:56:29;21.03;;;10.67;;
70683;SDS011;58263;48.146;11.440;2022-10-13T06:58:54;20.38;;;10.57;;
70683;SDS011;58263;48.146;11.440;2022-10-13T07:01:19;24.93;;;12.23;;
70683;SDS011;58263;48.146;11.440;2022-10-13T07:03:48;22.42;;;11.88;;
70683;SDS011;58263;48.146;11.440;2022-10-13T07:06:14;20.27;;;10.57;;
70683;SDS011;58263;48.146;11.440;2022-10-13T07:08:40;24.95;;;12.57;;
70683;SDS011;58263;48.146;11.440;2022-10-13T07:11:06;26.15;;;11.82;;
70683;SDS011;58263;48.146;11.440;2022-10-13T07:13:39;21.88;;;10.75;;
70683;SDS011;58263;48.146;11.440;2022-10-13T07:16:06;21.73;;;10.68;;
70683;SDS011;58263;48.146;11.440;2022-10-13T07:18:33;21.75;;;11.95;;
70683;SDS011;58263;48.146;11.440;2022-10-13T07:20:59;20.88;;;10.23;;
70683;SDS011;58263;48.146;11.440;2022-10-13T07:23:25;19.00;;;10.52;;
70683;SDS011;58263;48.146;11.440;2022-10-13T07:25:51;21.88;;;9.98;;
70683;SDS011;58263;48.146;11.440;2022-10-13T07:28:17;23.38;;;10.43;;
70683;SDS011;58263;48.146;11.440;2022-10-13T07:30:43;19.00;;;10.40;;
70683;SDS011;58263;48.146;11.440;2022-10-13T07:33:08;22.35;;;11.20;;
70683;SDS011;58263;48.146;11.440;2022-10-13T07:35:36;16.77;;;9.35;;
70683;SDS011;58263;48.146;11.440;2022-10-13T07:38:02;20.65;;;10.57;;
70683;SDS011;58263;48.146;11.440;2022-10-13T07:40:28;19.20;;;10.50;;
70683;SDS011;58263;48.146;11.440;2022-10-13T07:42:54;19.37;;;9.17;;
70683;SDS011;58263;48.146;11.440;2022-10-13T07:45:20;19.58;;;10.30;;
70683;SDS011;58263;48.146;11.440;2022-10-13T07:47:45;22.23;;;11.43;;
70683;SDS011;58263;48.146;11.440;2022-10-13T07:50:11;24.63;;;11.10;;
70683;SDS011;58263;48.146;11.440;2022-10-13T07:52:36;18.60;;;9.93;;
70683;SDS011;58263;48.146;11.440;2022-10-13T07:55:01;21.60;;;10.95;;
70683;SDS011;58263;48.146;11.440;2022-10-13T07:57:27;21.20;;;11.80;;
70683;SDS011;58263;48.146;11.440;2022-10-13T07:59:52;17.83;;;9.50;;
70683;SDS011;58263;48.146;11.440;2022-10-13T08:02:18;20.40;;;9.48;;
70683;SDS011;58263;48.146;11.440;2022-10-13T08:04:43;23.98;;;10.60;;
70683;SDS011;58263;48.146;11.440;2022-10-13T08:07:08;19.27;;;10.77;;
70683;SDS011;58263;48.146;11.440;2022-10-13T08:09:34;23.80;;;9.80;;
70683;SDS011;58263;48.146;11.440;2022-10-13T08:11:59;20.45;;;10.10;;
70683;SDS011;58263;48.146;11.440;2022-10-13T08:14:25;17.42;;;9.80;;
70683;SDS011;58263;48.146;11.440;2022-10-13T08:16:51;18.60;;;10.68;;
70683;SDS011;58263;48.146;11.440;2022-10-13T08:19:16;20.23;;;9.97;;
70683;SDS011;58263;48.146;11.440;2022-10-13T08:21:42;19.17;;;10.30;;
70683;SDS011;58263;48.146;11.440;2022-10-13T08:24:11;19.67;;;10.60;;
70683;SDS011;58263;48.146;11.440;2022-10-13T08:26:38;28.95;;;12.77;;
70683;SDS011;58263;48.146;11.440;2022-10-13T08:29:03;30.65;;;15.15;;
70683;SDS011;58263;48.146;11.440;2022-10-13T08:31:29;21.50;;;10.93;;
70683;SDS011;58263;48.146;11.440;2022-10-13T08:33:54;17.07;;;9.37;;
70683;SDS011;58263;48.146;11.440;2022-10-13T08:36:20;23.88;;;11.93;;
70683;SDS011;58263;48.146;11.440;2022-10-13T08:38:45;15.27;;;8.13;;
70683;SDS011;58263;48.146;11.440;2022-10-13T08:41:44;14.88;;;7.82;;
70683;SDS011;58263;48.146;11.440;2022-10-13T08:44:05;17.17;;;9.57;;
70683;SDS011;58263;48.146;11.440;2022-10-13T08:46:42;18.77;;;8.93;;
70683;SDS011;58263;48.146;11.440;2022-10-13T08:49:29;19.70;;;9.07;;
70683;SDS011;58263;48.146;11.440;2022-10-13T08:51:54;14.70;;;8.30;;
70683;SDS011;58263;48.146;11.440;2022-10-13T08:54:22;15.15;;;9.63;;
70683;SDS011;58263;48.146;11.440;2022-10-13T08:56:50;18.02;;;9.82;;
70683;SDS011;58263;48.146;11.440;2022-10-13T08:59:15;17.33;;;8.70;;
70683;SDS011;58263;48.146;11.440;2022-10-13T09:01:42;15.38;;;7.90;;
70683;SDS011;58263;48.146;11.440;2022-10-13T09:04:33;14.85;;;8.52;;
70683;SDS011;58263;48.146;11.440;2022-10-13T09:07:14;15.80;;;6.75;;
70683;SDS011;58263;48.146;11.440;2022-10-13T09:09:43;11.93;;;7.40;;
70683;SDS011;58263;48.146;11.440;2022-10-13T09:12:09;12.80;;;6.45;;
70683;SDS011;58263;48.146;11.440;2022-10-13T09:14:38;16.88;;;7.35;;
70683;SDS011;58263;48.146;11.440;2022-10-13T09:17:18;11.00;;;6.03;;
70683;SDS011;58263;48.146;11.440;2022-10-13T09:20:00;23.25;;;8.13;;
70683;SDS011;58263;48.146;11.440;2022-10-13T09:22:42;15.00;;;8.02;;
70683;SDS011;58263;48.146;11.440;2022-10-13T09:27:47;16.95;;;7.38;;
70683;SDS011;58263;48.146;11.440;2022-10-13T09:32:55;12.52;;;6.90;;
70683;SDS011;58263;48.146;11.440;2022-10-13T09:35:28;14.57;;;7.07;;
70683;SDS011;58263;48.146;11.440;2022-10-13T09:38:02;14.85;;;6.60;;
70683;SDS011;58263;48.146;11.440;2022-10-13T09:40:35;13.45;;;6.93;;
70683;SDS011;58263;48.146;11.440;2022-10-13T09:43:05;14.32;;;6.75;;
70683;SDS011;58263;48.146;11.440;2022-10-13T09:45:55;17.92;;;7.40;;
70683;SDS011;58263;48.146;11.440;2022-10-13T09:48:31;12.63;;;6.22;;
70683;SDS011;58263;48.146;11.440;2022-10-13T09:50:59;16.02;;;7.20;;
70683;SDS011;58263;48.146;11.440;2022-10-13T09:53:27;13.45;;;6.68;;
70683;SDS011;58263;48.146;11.440;2022-10-13T09:56:25;17.42;;;6.97;;
70683;SDS011;58263;48.146;11.440;2022-10-13T09:59:09;12.18;;;6.28;;
70683;SDS011;58263;48.146;11.440;2022-10-13T10:01:43;14.20;;;6.90;;
70683;SDS011;58263;48.146;11.440;2022-10-13T10:04:12;10.98;;;6.60;;
70683;SDS011;58263;48.146;11.440;2022-10-13T10:06:41;12.38;;;6.78;;
70683;SDS011;58263;48.146;11.440;2022-10-13T10:11:52;13.55;;;6.05;;
70683;SDS011;58263;48.146;11.440;2022-10-13T10:25:02;10.52;;;6.43;;
70683;SDS011;58263;48.146;11.440;2022-10-13T10:31:09;12.50;;;6.88;;
70683;SDS011;58263;48.146;11.440;2022-10-13T10:37:15;10.95;;;6.93;;
70683;SDS011;58263;48.146;11.440;2022-10-13T10:39:37;12.43;;;6.05;;
70683;SDS011;58263;48.146;11.440;2022-10-13T10:42:10;12.77;;;6.78;;
70683;SDS011;58263;48.146;11.440;2022-10-13T10:44:42;12.15;;;5.85;;
70683;SDS011;58263;48.146;11.440;2022-10-13T10:49:59;14.48;;;6.10;;
70683;SDS011;58263;48.146;11.440;2022-10-13T10:52:28;10.32;;;5.88;;
70683;SDS011;58263;48.146;11.440;2022-10-13T10:57:56;11.63;;;6.10;;
70683;SDS011;58263;48.146;11.440;2022-10-13T11:00:24;13.35;;;6.70;;
70683;SDS011;58263;48.146;11.440;2022-10-13T11:03:01;10.70;;;5.53;;
70683;SDS011;58263;48.146;11.440;2022-10-13T11:08:45;10.75;;;6.13;;
70683;SDS011;58263;48.146;11.440;2022-10-13T11:37:22;7.25;;;5.32;;
70683;SDS011;58263;48.146;11.440;2022-10-13T11:40:00;15.30;;;5.63;;
70683;SDS011;58263;48.146;11.440;2022-10-13T11:54:25;12.43;;;5.70;;
70683;SDS011;58263;48.146;11.440;2022-10-13T11:56:58;8.95;;;5.13;;
70683;SDS011;58263;48.146;11.440;2022-10-13T11:59:28;10.82;;;5.30;;
70683;SDS011;58263;48.146;11.440;2022-10-13T12:04:35;13.40;;;6.25;;
70683;SDS011;58263;48.146;11.440;2022-10-13T12:07:02;8.15;;;4.70;;
70683;SDS011;58263;48.146;11.440;2022-10-13T12:09:31;9.27;;;5.07;;
70683;SDS011;58263;48.146;11.440;2022-10-13T12:12:08;13.40;;;5.43;;
70683;SDS011;58263;48.146;11.440;2022-10-13T12:14:39;8.77;;;5.75;;
70683;SDS011;58263;48.146;11.440;2022-10-13T12:19:50;9.82;;;5.90;;
70683;SDS011;58263;48.146;11.440;2022-10-13T12:22:16;9.48;;;5.40;;
70683;SDS011;58263;48.146;11.440;2022-10-13T12:24:41;14.20;;;5.77;;
70683;SDS011;58263;48.146;11.440;2022-10-13T12:27:17;9.57;;;4.87;;
70683;SDS011;58263;48.146;11.440;2022-10-13T12:29:45;8.63;;;4.90;;
70683;SDS011;58263;48.146;11.440;2022-10-13T12:32:20;10.00;;;4.95;;
70683;SDS011;58263;48.146;11.440;2022-10-13T12:34:48;36.10;;;7.45;;
70683;SDS011;58263;48.146;11.440;2022-10-13T12:37:27;12.45;;;5.35;;
70683;SDS011;58263;48.146;11.440;2022-10-13T12:39:55;10.32;;;5.32;;
70683;SDS011;58263;48.146;11.440;2022-10-13T12:42:29;11.00;;;5.38;;
70683;SDS011;58263;48.146;11.440;2022-10-13T12:44:56;13.88;;;5.20;;
70683;SDS011;58263;48.146;11.440;2022-10-13T12:47:45;9.90;;;4.57;;
70683;SDS011;58263;48.146;11.440;2022-10-13T12:56:00;12.13;;;5.22;;
70683;SDS011;58263;48.146;11.440;2022-10-13T13:01:02;10.38;;;4.63;;
70683;SDS011;58263;48.146;11.440;2022-10-13T13:03:31;11.20;;;4.93;;
70683;SDS011;58263;48.146;11.440;2022-10-13T13:08:37;10.77;;;4.90;;
70683;SDS011;58263;48.146;11.440;2022-10-13T13:11:15;9.93;;;4.40;;
70683;SDS011;58263;48.146;11.440;2022-10-13T13:13:45;11.75;;;4.70;;
70683;SDS011;58263;48.146;11.440;2022-10-13T13:16:15;23.48;;;11.43;;
70683;SDS011;58263;48.146;11.440;2022-10-13T13:18:45;17.50;;;10.15;;
70683;SDS011;58263;48.146;11.440;2022-10-13T13:21:13;11.05;;;5.80;;
70683;SDS011;58263;48.146;11.440;2022-10-13T13:23:39;10.73;;;5.22;;
70683;SDS011;58263;48.146;11.440;2022-10-13T13:26:18;8.68;;;4.20;;
70683;SDS011;58263;48.146;11.440;2022-10-13T13:28:52;8.38;;;4.00;;
70683;SDS011;58263;48.146;11.440;2022-10-13T13:31:19;7.05;;;4.07;;
70683;SDS011;58263;48.146;11.440;2022-10-13T13:33:49;11.45;;;4.55;;
70683;SDS011;58263;48.146;11.440;2022-10-13T13:36:18;10.85;;;5.03;;
70683;SDS011;58263;48.146;11.440;2022-10-13T13:38:45;8.73;;;4.38;;
70683;SDS011;58263;48.146;11.440;2022-10-13T13:41:11;10.02;;;4.70;;
70683;SDS011;58263;48.146;11.440;2022-10-13T13:43:37;8.38;;;4.63;;
70683;SDS011;58263;48.146;11.440;2022-10-13T13:46:03;8.65;;;4.60;;
70683;SDS011;58263;48.146;11.440;2022-10-13T13:48:30;8.80;;;4.53;;
70683;SDS011;58263;48.146;11.440;2022-10-13T13:50:56;9.77;;;5.22;;
70683;SDS011;58263;48.146;11.440;2022-10-13T13:53:21;11.63;;;4.22;;
70683;SDS011;58263;48.146;11.440;2022-10-13T13:55:47;10.67;;;4.97;;
70683;SDS011;58263;48.146;11.440;2022-10-13T13:58:12;10.52;;;4.25;;
70683;SDS011;58263;48.146;11.440;2022-10-13T14:00:38;8.50;;;5.32;;
70683;SDS011;58263;48.146;11.440;2022-10-13T14:03:03;10.57;;;5.03;;
70683;SDS011;58263;48.146;11.440;2022-10-13T14:05:28;11.53;;;4.77;;
70683;SDS011;58263;48.146;11.440;2022-10-13T14:07:54;9.63;;;4.70;;
70683;SDS011;58263;48.146;11.440;2022-10-13T14:10:21;11.95;;;5.05;;
70683;SDS011;58263;48.146;11.440;2022-10-13T14:12:47;13.07;;;5.00;;
70683;SDS011;58263;48.146;11.440;2022-10-13T14:15:12;8.07;;;4.50;;
70683;SDS011;58263;48.146;11.440;2022-10-13T14:17:37;12.40;;;4.70;;
70683;SDS011;58263;48.146;11.440;2022-10-13T14:20:03;9.80;;;4.60;;
70683;SDS011;58263;48.146;11.440;2022-10-13T14:22:28;11.55;;;5.07;;
70683;SDS011;58263;48.146;11.440;2022-10-13T14:24:54;9.73;;;4.37;;
70683;SDS011;58263;48.146;11.440;2022-10-13T14:27:19;11.43;;;5.17;;
70683;SDS011;58263;48.146;11.440;2022-10-13T14:29:44;10.50;;;4.60;;
70683;SDS011;58263;48.146;11.440;2022-10-13T14:32:10;9.13;;;4.13;;
70683;SDS011;58263;48.146;11.440;2022-10-13T14:34:35;10.40;;;4.63;;
70683;SDS011;58263;48.146;11.440;2022-10-13T14:37:00;13.90;;;5.47;;
70683;SDS011;58263;48.146;11.440;2022-10-13T14:39:26;8.57;;;4.67;;
70683;SDS011;58263;48.146;11.440;2022-10-13T14:41:51;9.27;;;4.67;;
70683;SDS011;58263;48.146;11.440;2022-10-13T14:44:16;11.50;;;5.27;;
70683;SDS011;58263;48.146;11.440;2022-10-13T14:46:42;9.38;;;4.50;;
70683;SDS011;58263;48.146;11.440;2022-10-13T14:49:09;11.77;;;4.72;;
70683;SDS011;58263;48.146;11.440;2022-10-13T14:51:35;8.98;;;4.28;;
70683;SDS011;58263;48.146;11.440;2022-10-13T14:54:00;9.47;;;4.37;;
70683;SDS011;58263;48.146;11.440;2022-10-13T14:56:30;8.57;;;4.47;;
70683;SDS011;58263;48.146;11.440;2022-10-13T14:58:56;11.43;;;4.93;;
70683;SDS011;58263;48.146;11.440;2022-10-13T15:01:22;8.35;;;4.80;;
70683;SDS011;58263;48.146;11.440;2022-10-13T15:03:48;12.37;;;4.60;;
70683;SDS011;58263;48.146;11.440;2022-10-13T15:06:15;9.32;;;4.20;;
70683;SDS011;58263;48.146;11.440;2022-10-13T15:08:46;10.85;;;4.65;;
70683;SDS011;58263;48.146;11.440;2022-10-13T15:11:12;9.50;;;4.53;;
70683;SDS011;58263;48.146;11.440;2022-10-13T15:13:38;12.65;;;5.65;;
70683;SDS011;58263;48.146;11.440;2022-10-13T15:16:04;9.98;;;5.72;;
70683;SDS011;58263;48.146;11.440;2022-10-13T15:18:31;8.90;;;4.60;;
70683;SDS011;58263;48.146;11.440;2022-10-13T15:20:57;7.88;;;4.53;;
70683;SDS011;58263;48.146;11.440;2022-10-13T15:23:23;8.65;;;5.18;;
70683;SDS011;58263;48.146;11.440;2022-10-13T15:25:52;6.00;;;4.47;;
70683;SDS011;58263;48.146;11.440;2022-10-13T15:28:20;9.32;;;4.28;;
70683;SDS011;58263;48.146;11.440;2022-10-13T15:30:45;9.77;;;4.00;;
70683;SDS011;58263;48.146;11.440;2022-10-13T15:33:11;8.70;;;4.72;;
70683;SDS011;58263;48.146;11.440;2022-10-13T15:35:36;8.80;;;4.37;;
70683;SDS011;58263;48.146;11.440;2022-10-13T15:38:01;8.90;;;5.03;;
70683;SDS011;58263;48.146;11.440;2022-10-13T15:40:27;11.43;;;5.20;;
70683;SDS011;58263;48.146;11.440;2022-10-13T15:42:52;10.87;;;5.33;;
70683;SDS011;58263;48.146;11.440;2022-10-13T15:45:17;6.95;;;5.07;;
70683;SDS011;58263;48.146;11.440;2022-10-13T15:47:43;10.07;;;4.72;;
70683;SDS011;58263;48.146;11.440;2022-10-13T15:50:08;8.47;;;4.97;;
70683;SDS011;58263;48.146;11.440;2022-10-13T15:52:37;13.05;;;5.05;;
70683;SDS011;58263;48.146;11.440;2022-10-13T15:55:04;9.80;;;5.90;;
70683;SDS011;58263;48.146;11.440;2022-10-13T15:57:30;12.68;;;5.35;;
70683;SDS011;58263;48.146;11.440;2022-10-13T15:59:55;8.15;;;4.97;;
70683;SDS011;58263;48.146;11.440;2022-10-13T16:02:20;11.53;;;4.97;;
70683;SDS011;58263;48.146;11.440;2022-10-13T16:04:48;12.23;;;5.75;;
70683;SDS011;58263;48.146;11.440;2022-10-13T16:07:13;8.02;;;5.20;;
70683;SDS011;58263;48.146;11.440;2022-10-13T16:09:38;41.57;;;20.57;;
70683;SDS011;58263;48.146;11.440;2022-10-13T16:12:04;11.97;;;6.80;;
70683;SDS011;58263;48.146;11.440;2022-10-13T16:14:29;14.65;;;6.72;;
70683;SDS011;58263;48.146;11.440;2022-10-13T16:16:54;11.50;;;6.03;;
70683;SDS011;58263;48.146;11.440;2022-10-13T16:19:20;25.57;;;6.60;;
70683;SDS011;58263;48.146;11.440;2022-10-13T16:21:45;24.77;;;6.80;;
70683;SDS011;58263;48.146;11.440;2022-10-13T16:24:10;19.42;;;5.63;;
70683;SDS011;58263;48.146;11.440;2022-10-13T16:26:36;16.17;;;6.07;;